createdAt,value
2023-01-20T00:01:03.286Z,0.62
2023-01-20T00:03:29.918Z,0.60
2023-01-20T00:05:56.323Z,0.57
2023-01-20T00:08:23.808Z,0.57
2023-01-20T00:10:50.236Z,0.56
2023-01-20T00:13:16.618Z,0.54
2023-01-20T00:15:43.187Z,0.57
2023-01-20T00:18:09.615Z,0.56
2023-01-20T00:20:38.340Z,0.56
2023-01-20T00:23:04.765Z,0.57
2023-01-20T00:25:31.194Z,0.62
2023-01-20T00:27:57.556Z,0.66
2023-01-20T00:30:24.217Z,0.59
2023-01-20T00:32:51.969Z,0.63
2023-01-20T00:35:18.380Z,0.67
2023-01-20T00:37:47.380Z,0.71
2023-01-20T00:40:13.907Z,0.71
2023-01-20T00:42:42.970Z,0.73
2023-01-20T00:45:09.852Z,0.71
2023-01-20T00:47:38.591Z,0.76
2023-01-20T00:50:05.410Z,0.73
2023-01-20T00:52:31.888Z,0.72
2023-01-20T00:55:00.547Z,0.70
2023-01-20T00:57:29.335Z,0.68
2023-01-20T00:59:55.789Z,0.68
2023-01-20T01:02:22.294Z,0.69
2023-01-20T01:04:52.007Z,0.68
2023-01-20T01:07:20.953Z,0.73
2023-01-20T01:09:52.954Z,0.70
2023-01-20T01:12:19.416Z,0.67
2023-01-20T01:14:45.972Z,0.72
2023-01-20T01:17:12.387Z,0.68
2023-01-20T01:19:38.909Z,0.67
2023-01-20T01:22:05.332Z,0.67
2023-01-20T01:24:31.808Z,0.65
2023-01-20T01:27:00.981Z,0.65
2023-01-20T01:29:27.413Z,0.69
2023-01-20T01:31:56.980Z,0.68
2023-01-20T01:34:23.556Z,0.66
2023-01-20T01:36:50.137Z,0.69
2023-01-20T01:39:16.713Z,0.68
2023-01-20T01:41:43.121Z,0.68
2023-01-20T01:44:14.069Z,0.66
2023-01-20T01:46:41.845Z,0.65
2023-01-20T01:49:13.986Z,0.66
2023-01-20T01:52:03.585Z,0.65
2023-01-20T01:54:37.782Z,0.63
2023-01-20T01:57:07.458Z,0.63
2023-01-20T01:59:35.127Z,0.61
2023-01-20T02:02:01.770Z,0.61
2023-01-20T02:04:28.517Z,0.60
2023-01-20T02:07:00.151Z,0.60
2023-01-20T02:09:27.463Z,0.56
2023-01-20T02:12:01.600Z,0.57
2023-01-20T02:14:37.383Z,0.57
2023-01-20T02:17:22.123Z,0.55
2023-01-20T02:20:13.024Z,0.56
2023-01-20T02:22:58.818Z,0.56
2023-01-20T02:25:33.980Z,0.53
2023-01-20T02:28:48.588Z,0.53
2023-01-20T02:31:35.342Z,0.53
2023-01-20T02:34:14.222Z,0.50
2023-01-20T02:36:45.504Z,0.49
2023-01-20T02:39:32.866Z,0.46
2023-01-20T02:42:12.379Z,0.43
2023-01-20T02:44:52.065Z,0.41
2023-01-20T02:47:21.305Z,0.39
2023-01-20T02:50:00.331Z,0.35
2023-01-20T02:52:31.021Z,0.34
2023-01-20T02:55:03.857Z,0.30
2023-01-20T02:57:42.183Z,0.28
2023-01-20T03:00:14.791Z,0.29
2023-01-20T03:02:44.157Z,0.25
2023-01-20T03:05:17.625Z,0.21
2023-01-20T03:07:45.862Z,0.20
2023-01-20T03:10:16.539Z,0.18
2023-01-20T03:12:51.350Z,0.16
2023-01-20T03:15:25.591Z,0.14
2023-01-20T03:17:54.792Z,0.12
2023-01-20T03:20:21.316Z,0.14
2023-01-20T03:22:47.702Z,0.12
2023-01-20T03:25:15.211Z,0.10
2023-01-20T03:27:42.678Z,0.11
2023-01-20T03:30:16.527Z,0.09
2023-01-20T03:32:49.929Z,0.11
2023-01-20T03:35:19.802Z,0.12
2023-01-20T03:37:46.729Z,0.24
2023-01-20T03:40:14.503Z,0.19
2023-01-20T03:42:49.339Z,0.18
2023-01-20T03:45:35.695Z,0.13
2023-01-20T03:48:10.966Z,0.10
2023-01-20T03:50:51.210Z,0.05
2023-01-20T03:53:33.507Z,0.02
2023-01-20T03:56:21.854Z,-0.03
2023-01-20T03:58:52.628Z,-0.05
2023-01-20T04:01:29.075Z,-0.09
2023-01-20T04:03:57.172Z,-0.09
2023-01-20T04:06:26.727Z,-0.13
2023-01-20T04:08:57.027Z,-0.17
2023-01-20T04:11:27.290Z,-0.18
2023-01-20T04:14:01.253Z,-0.17
2023-01-20T04:16:27.820Z,-0.21
2023-01-20T04:18:55.392Z,-0.28
2023-01-20T04:21:43.675Z,-0.20
2023-01-20T04:24:26.416Z,-0.18
2023-01-20T04:26:52.998Z,-0.24
2023-01-20T04:29:19.696Z,-0.21
2023-01-20T04:31:46.172Z,-0.32
2023-01-20T04:34:18.404Z,-0.41
2023-01-20T04:36:44.976Z,-0.51
2023-01-20T04:39:11.954Z,-0.60
2023-01-20T04:41:41.064Z,-0.69
2023-01-20T04:44:07.482Z,-0.75
2023-01-20T04:46:36.713Z,-0.80
2023-01-20T04:49:03.336Z,-0.90
2023-01-20T04:51:29.733Z,-0.98
2023-01-20T04:53:57.515Z,-1.02
2023-01-20T04:56:24.110Z,-1.03
2023-01-20T04:58:53.096Z,-1.11
2023-01-20T05:01:19.682Z,-1.13
2023-01-20T05:03:49.262Z,-1.18
2023-01-20T05:06:18.800Z,-1.23
2023-01-20T05:08:45.665Z,-1.29
2023-01-20T05:11:12.230Z,-1.32
2023-01-20T05:13:40.193Z,-1.34
2023-01-20T05:16:12.761Z,-1.35
2023-01-20T05:18:39.338Z,-1.34
2023-01-20T05:21:08.845Z,-1.32
2023-01-20T05:23:36.012Z,-1.27
2023-01-20T05:26:02.770Z,-1.15
2023-01-20T05:28:31.444Z,-1.22
2023-01-20T05:31:04.189Z,-1.30
2023-01-20T05:33:30.787Z,-1.33
2023-01-20T05:35:59.709Z,-1.41
2023-01-20T05:38:28.504Z,-1.49
2023-01-20T05:41:02.414Z,-1.49
2023-01-20T05:43:29.011Z,-1.54
2023-01-20T05:45:55.853Z,-1.63
2023-01-20T05:48:23.045Z,-1.65
2023-01-20T05:50:51.849Z,-1.73
2023-01-20T05:53:19.083Z,-1.72
2023-01-20T05:55:45.917Z,-1.79
2023-01-20T05:58:12.769Z,-1.83
2023-01-20T06:00:39.285Z,-1.84
2023-01-20T06:03:05.803Z,-1.89
2023-01-20T06:05:32.473Z,-1.90
2023-01-20T06:07:59.069Z,-1.91
2023-01-20T06:10:28.054Z,-1.87
2023-01-20T06:12:57.839Z,-1.88
2023-01-20T06:15:25.366Z,-1.85
2023-01-20T06:17:54.950Z,-1.88
2023-01-20T06:20:21.548Z,-1.84
2023-01-20T06:22:54.229Z,-1.92
2023-01-20T06:25:20.666Z,-1.90
2023-01-20T06:27:47.031Z,-1.95
2023-01-20T06:30:13.986Z,-1.97
2023-01-20T06:32:40.456Z,-2.01
2023-01-20T06:35:11.235Z,-2.02
2023-01-20T06:37:37.812Z,-1.96
2023-01-20T06:40:05.278Z,-1.97
2023-01-20T06:42:32.188Z,-1.96
2023-01-20T06:44:58.589Z,-1.97
2023-01-20T06:47:27.325Z,-2.02
2023-01-20T06:49:53.802Z,-1.89
2023-01-20T06:52:22.540Z,-2.01
2023-01-20T06:54:52.213Z,-2.00
2023-01-20T06:57:19.463Z,-2.05
2023-01-20T06:59:45.985Z,-2.09
2023-01-20T07:02:12.671Z,-2.13
2023-01-20T07:04:39.562Z,-2.16
2023-01-20T07:07:05.981Z,-2.05
2023-01-20T07:09:32.380Z,-2.11
2023-01-20T07:12:01.411Z,-2.19
2023-01-20T07:14:27.930Z,-2.17
2023-01-20T07:16:54.366Z,-2.18
2023-01-20T07:19:20.853Z,-2.21
2023-01-20T07:21:47.553Z,-2.18
2023-01-20T07:24:13.931Z,-2.28
2023-01-20T07:26:40.368Z,-2.27
2023-01-20T07:29:06.936Z,-2.25
2023-01-20T07:31:34.337Z,-2.28
2023-01-20T07:34:00.827Z,-2.31
2023-01-20T07:36:30.206Z,-2.31
2023-01-20T07:38:59.144Z,-2.29
2023-01-20T07:41:28.814Z,-2.31
2023-01-20T07:43:57.585Z,-2.36
2023-01-20T07:46:24.043Z,-2.30
2023-01-20T07:48:50.664Z,-2.28
2023-01-20T07:51:18.351Z,-2.20
2023-01-20T07:53:47.094Z,-2.25
2023-01-20T07:56:25.425Z,-2.09
2023-01-20T07:58:52.590Z,-1.82
2023-01-20T08:01:30.600Z,-1.99
2023-01-20T08:04:00.341Z,-1.95
2023-01-20T08:06:27.741Z,-1.91
2023-01-20T08:08:57.051Z,-1.85
2023-01-20T08:11:24.947Z,-1.93
2023-01-20T08:13:53.745Z,-1.90
2023-01-20T08:16:20.495Z,-1.88
2023-01-20T08:18:47.207Z,-1.86
2023-01-20T08:21:24.702Z,-1.80
2023-01-20T08:23:51.538Z,-1.72
2023-01-20T08:26:19.301Z,-1.64
2023-01-20T08:28:46.383Z,-1.63
2023-01-20T08:31:16.965Z,-1.58
2023-01-20T08:33:44.485Z,-1.41
2023-01-20T08:36:18.565Z,-1.36
2023-01-20T08:38:48.239Z,-1.29
2023-01-20T08:41:42.949Z,-1.24
2023-01-20T08:44:12.265Z,-1.15
2023-01-20T08:46:42.047Z,-1.10
2023-01-20T08:49:16.222Z,-1.11
2023-01-20T08:51:44.578Z,-1.07
2023-01-20T08:54:11.382Z,-0.94
2023-01-20T08:56:37.894Z,-0.89
2023-01-20T08:59:04.773Z,-0.76
2023-01-20T09:01:37.791Z,-0.76
2023-01-20T09:04:06.790Z,-0.62
2023-01-20T09:06:43.036Z,-0.66
2023-01-20T09:09:12.982Z,-0.49
2023-01-20T09:11:44.761Z,-0.39
2023-01-20T09:14:11.409Z,-0.40
2023-01-20T09:16:38.014Z,-0.37
2023-01-20T09:19:04.591Z,-0.32
2023-01-20T09:21:33.230Z,-0.20
2023-01-20T09:24:02.223Z,-0.07
2023-01-20T09:26:38.676Z,-0.03
2023-01-20T09:29:10.461Z,0.07
2023-01-20T09:31:49.595Z,0.16
2023-01-20T09:34:24.652Z,0.21
2023-01-20T09:36:57.322Z,0.32
2023-01-20T09:39:42.674Z,0.36
2023-01-20T09:42:53.824Z,0.53
2023-01-20T09:45:52.236Z,0.73
2023-01-20T09:48:52.997Z,0.85
2023-01-20T09:51:48.843Z,1.00
2023-01-20T09:54:28.537Z,1.14
2023-01-20T09:56:58.905Z,1.24
2023-01-20T09:59:31.527Z,1.33
2023-01-20T10:02:05.501Z,1.42
2023-01-20T10:04:39.650Z,1.64
2023-01-20T10:07:12.938Z,1.87
2023-01-20T10:10:02.697Z,2.04
2023-01-20T10:12:37.585Z,2.25
2023-01-20T10:15:13.279Z,2.37
2023-01-20T10:17:48.622Z,2.51
2023-01-20T10:20:26.626Z,2.63
2023-01-20T10:23:10.880Z,2.80
2023-01-20T10:25:59.361Z,2.90
2023-01-20T10:28:29.511Z,2.90
2023-01-20T10:30:59.813Z,3.04
2023-01-20T10:33:40.236Z,3.03
2023-01-20T10:36:21.214Z,3.09
2023-01-20T10:38:54.981Z,3.09
2023-01-20T10:41:32.999Z,3.12
2023-01-20T10:44:00.017Z,3.06
2023-01-20T10:46:41.660Z,3.17
2023-01-20T10:49:35.006Z,3.18
2023-01-20T10:52:10.381Z,3.26
2023-01-20T10:54:47.249Z,3.25
2023-01-20T10:57:15.871Z,3.29
2023-01-20T11:00:19.202Z,3.47
2023-01-20T11:02:49.151Z,3.54
2023-01-20T11:05:30.202Z,3.61
2023-01-20T11:07:58.503Z,3.59
2023-01-20T11:10:29.276Z,3.73
2023-01-20T11:12:59.722Z,3.80
2023-01-20T11:15:46.556Z,3.85
2023-01-20T11:18:15.900Z,3.86
2023-01-20T11:20:47.291Z,3.87
2023-01-20T11:23:26.757Z,3.90
2023-01-20T11:25:56.655Z,4.01
2023-01-20T11:28:24.099Z,4.10
2023-01-20T11:30:55.829Z,4.05
2023-01-20T11:33:25.438Z,4.05
2023-01-20T11:36:03.047Z,4.04
2023-01-20T11:38:42.820Z,4.03
2023-01-20T11:41:23.521Z,4.09
2023-01-20T11:43:55.574Z,4.09
2023-01-20T11:46:27.013Z,4.16
2023-01-20T11:49:17.741Z,4.11
2023-01-20T11:51:51.434Z,4.26
2023-01-20T11:54:29.514Z,4.24
2023-01-20T11:57:01.449Z,4.30
2023-01-20T11:59:30.734Z,4.42
2023-01-20T12:02:00.722Z,4.36
2023-01-20T12:04:41.417Z,4.34
2023-01-20T12:07:39.317Z,4.42
2023-01-20T12:10:34.769Z,4.44
2023-01-20T12:13:16.913Z,4.36
2023-01-20T12:15:52.878Z,4.27
2023-01-20T12:18:32.519Z,4.26
2023-01-20T12:21:08.009Z,4.20
2023-01-20T12:23:51.565Z,4.27
2023-01-20T12:26:21.098Z,4.28
2023-01-20T12:29:16.319Z,4.34
2023-01-20T12:31:43.564Z,4.25
2023-01-20T12:34:16.219Z,4.22
2023-01-20T12:36:51.593Z,4.30
2023-01-20T12:39:29.137Z,4.30
2023-01-20T12:42:10.716Z,4.45
2023-01-20T12:44:45.943Z,4.46
2023-01-20T12:47:23.574Z,4.47
2023-01-20T12:49:56.180Z,4.49
2023-01-20T12:52:51.621Z,4.36
2023-01-20T12:55:27.136Z,4.40
2023-01-20T12:58:08.836Z,4.35
2023-01-20T13:00:49.930Z,4.23
2023-01-20T13:03:38.439Z,4.16
2023-01-20T13:06:28.096Z,4.12
2023-01-20T13:09:19.079Z,4.10
2023-01-20T13:12:07.185Z,4.09
2023-01-20T13:14:41.479Z,4.03
2023-01-20T13:17:48.465Z,3.98
2023-01-20T13:20:22.969Z,4.02
2023-01-20T13:22:51.369Z,3.96
2023-01-20T13:25:19.934Z,4.13
2023-01-20T13:27:49.660Z,4.25
2023-01-20T13:30:39.514Z,4.34
2023-01-20T13:33:14.111Z,4.40
2023-01-20T13:35:43.846Z,4.48
2023-01-20T13:38:25.610Z,4.60
2023-01-20T13:40:55.166Z,4.67
2023-01-20T13:43:30.172Z,4.80
2023-01-20T13:46:02.804Z,4.79
2023-01-20T13:48:31.145Z,4.78
2023-01-20T13:51:15.741Z,4.77
2023-01-20T13:53:45.606Z,4.66
2023-01-20T13:56:34.672Z,4.60
2023-01-20T13:59:01.317Z,4.47
2023-01-20T14:01:28.556Z,4.39
2023-01-20T14:04:06.284Z,4.25
2023-01-20T14:06:35.577Z,4.15
2023-01-20T14:09:03.449Z,4.05
2023-01-20T14:11:31.338Z,4.01
2023-01-20T14:14:01.913Z,3.98
2023-01-20T14:16:30.829Z,3.96
2023-01-20T14:19:02.823Z,3.94
2023-01-20T14:21:30.980Z,3.87
2023-01-20T14:23:59.647Z,3.83
2023-01-20T14:26:29.176Z,3.75
2023-01-20T14:28:58.160Z,3.31
2023-01-20T14:31:34.021Z,2.91
2023-01-20T14:34:21.768Z,2.86
2023-01-20T14:36:48.483Z,2.88
2023-01-20T14:39:23.840Z,2.85
2023-01-20T14:41:52.849Z,2.85
2023-01-20T14:44:25.100Z,2.82
2023-01-20T14:46:54.296Z,2.75
2023-01-20T14:49:22.926Z,2.73
2023-01-20T14:51:53.087Z,2.70
2023-01-20T14:54:45.512Z,2.66
2023-01-20T14:57:27.112Z,2.64
2023-01-20T15:00:19.130Z,2.64
2023-01-20T15:03:11.229Z,2.62
2023-01-20T15:05:44.710Z,2.61
2023-01-20T15:08:15.231Z,2.59
2023-01-20T15:10:44.681Z,2.59
2023-01-20T15:13:31.366Z,2.57
2023-01-20T15:16:16.643Z,2.57
2023-01-20T15:18:43.089Z,2.53
2023-01-20T15:21:27.892Z,2.47
2023-01-20T15:23:54.597Z,2.42
2023-01-20T15:26:24.338Z,2.35
2023-01-20T15:28:50.804Z,2.29
2023-01-20T15:31:17.788Z,2.24
2023-01-20T15:33:44.439Z,2.18
2023-01-20T15:36:17.053Z,2.13
2023-01-20T15:38:43.660Z,2.09
2023-01-20T15:41:15.859Z,2.04
2023-01-20T15:43:45.251Z,2.02
2023-01-20T15:46:18.484Z,1.93
2023-01-20T15:48:50.549Z,1.86
2023-01-20T15:51:19.212Z,1.80
2023-01-20T15:53:46.769Z,1.75
2023-01-20T15:56:28.832Z,1.65
2023-01-20T15:58:56.139Z,1.65
2023-01-20T16:01:26.791Z,1.60
2023-01-20T16:03:56.856Z,1.64
2023-01-20T16:06:28.155Z,1.59
2023-01-20T16:08:54.720Z,1.53
2023-01-20T16:11:21.359Z,1.53
2023-01-20T16:13:50.265Z,1.53
2023-01-20T16:16:29.511Z,1.51
2023-01-20T16:18:56.062Z,1.50
2023-01-20T16:21:22.639Z,1.49
2023-01-20T16:23:49.070Z,1.52
2023-01-20T16:26:24.439Z,1.47
2023-01-20T16:28:56.141Z,1.48
2023-01-20T16:31:23.906Z,1.50
2023-01-20T16:33:51.960Z,1.46
2023-01-20T16:36:20.327Z,1.48
2023-01-20T16:38:47.839Z,1.48
2023-01-20T16:41:21.258Z,1.49
2023-01-20T16:43:47.898Z,1.51
2023-01-20T16:46:20.563Z,1.55
2023-01-20T16:48:53.421Z,1.55
2023-01-20T16:51:25.712Z,1.55
2023-01-20T16:53:53.447Z,1.59
2023-01-20T16:56:24.925Z,1.62
2023-01-20T16:58:53.483Z,1.68
2023-01-20T17:01:24.680Z,1.67
2023-01-20T17:03:53.283Z,1.66
2023-01-20T17:06:25.304Z,1.69
2023-01-20T17:08:56.518Z,1.68
2023-01-20T17:11:25.538Z,1.71
2023-01-20T17:13:52.850Z,1.74
2023-01-20T17:16:20.460Z,1.76
2023-01-20T17:18:50.851Z,1.77
2023-01-20T17:21:21.687Z,1.79
2023-01-20T17:23:52.742Z,1.88
2023-01-20T17:26:20.170Z,1.88
2023-01-20T17:28:47.529Z,1.95
2023-01-20T17:31:14.515Z,2.01
2023-01-20T17:33:47.345Z,1.98
2023-01-20T17:36:17.142Z,1.91
2023-01-20T17:38:44.308Z,1.86
2023-01-20T17:41:12.573Z,1.82
2023-01-20T17:43:41.233Z,1.76
2023-01-20T17:46:34.154Z,1.71
2023-01-20T17:49:01.722Z,1.60
2023-01-20T17:51:29.619Z,1.53
2023-01-20T17:53:57.734Z,1.46
2023-01-20T17:56:24.580Z,1.39
2023-01-20T17:58:51.535Z,1.32
2023-01-20T18:01:19.596Z,1.27
2023-01-20T18:03:48.239Z,1.22
2023-01-20T18:06:16.940Z,1.18
2023-01-20T18:08:44.311Z,1.15
2023-01-20T18:11:15.483Z,1.10
2023-01-20T18:13:48.584Z,1.07
2023-01-20T18:16:17.563Z,1.05
2023-01-20T18:18:45.906Z,0.99
2023-01-20T18:21:12.562Z,0.98
2023-01-20T18:23:39.808Z,1.03
2023-01-20T18:26:07.597Z,0.96
2023-01-20T18:28:39.616Z,0.95
2023-01-20T18:31:14.396Z,0.97
2023-01-20T18:33:48.630Z,0.96
2023-01-20T18:36:25.443Z,0.91
2023-01-20T18:38:53.527Z,0.92
2023-01-20T18:41:20.919Z,0.93
2023-01-20T18:43:50.070Z,0.93
2023-01-20T18:46:17.093Z,0.90
2023-01-20T18:48:47.368Z,0.91
2023-01-20T18:51:15.949Z,0.90
2023-01-20T18:53:44.277Z,0.85
2023-01-20T18:56:13.674Z,0.82
2023-01-20T18:58:45.718Z,0.91
2023-01-20T19:01:16.813Z,0.83
2023-01-20T19:03:45.990Z,0.84
2023-01-20T19:06:15.412Z,0.81
2023-01-20T19:08:44.088Z,0.84
2023-01-20T19:11:15.132Z,0.86
2023-01-20T19:13:41.871Z,0.86
2023-01-20T19:16:12.747Z,0.79
2023-01-20T19:18:40.508Z,0.84
2023-01-20T19:21:17.489Z,0.74
2023-01-20T19:23:47.736Z,0.78
2023-01-20T19:26:15.291Z,0.73
2023-01-20T19:28:41.703Z,0.75
2023-01-20T19:31:10.876Z,0.73
2023-01-20T19:33:38.055Z,0.71
2023-01-20T19:36:10.427Z,0.72
2023-01-20T19:38:37.306Z,0.75
2023-01-20T19:41:15.808Z,0.74
2023-01-20T19:43:43.242Z,0.68
2023-01-20T19:46:13.254Z,0.68
2023-01-20T19:48:40.898Z,0.67
2023-01-20T19:51:13.504Z,0.73
2023-01-20T19:53:40.791Z,0.73
2023-01-20T19:56:10.015Z,0.73
2023-01-20T19:58:37.607Z,0.76
2023-01-20T20:01:22.016Z,0.70
2023-01-20T20:04:01.068Z,0.69
2023-01-20T20:06:32.466Z,0.68
2023-01-20T20:09:01.709Z,0.77
2023-01-20T20:11:29.898Z,0.75
2023-01-20T20:13:58.615Z,0.74
2023-01-20T20:16:30.222Z,0.70
2023-01-20T20:18:57.989Z,0.75
2023-01-20T20:21:25.617Z,0.76
2023-01-20T20:23:59.675Z,0.71
2023-01-20T20:26:29.988Z,0.69
2023-01-20T20:28:58.716Z,0.72
2023-01-20T20:31:31.220Z,0.72
2023-01-20T20:33:59.274Z,0.70
2023-01-20T20:36:28.237Z,0.71
2023-01-20T20:38:55.089Z,0.75
2023-01-20T20:41:22.344Z,0.70
2023-01-20T20:43:48.887Z,0.67
2023-01-20T20:46:17.159Z,0.70
2023-01-20T20:48:43.842Z,0.66
2023-01-20T20:51:12.615Z,0.67
2023-01-20T20:53:39.363Z,0.69
2023-01-20T20:56:14.011Z,0.66
2023-01-20T20:58:59.480Z,0.69
2023-01-20T21:01:28.356Z,0.70
2023-01-20T21:03:57.468Z,0.70
2023-01-20T21:06:24.880Z,0.71
2023-01-20T21:08:53.693Z,0.68
2023-01-20T21:11:20.868Z,0.70
2023-01-20T21:13:49.455Z,0.63
2023-01-20T21:16:17.928Z,0.68
2023-01-20T21:18:44.892Z,0.66
2023-01-20T21:21:19.926Z,0.65
2023-01-20T21:23:54.511Z,0.69
2023-01-20T21:26:21.851Z,0.69
2023-01-20T21:28:51.478Z,0.65
2023-01-20T21:31:26.991Z,0.68
2023-01-20T21:33:56.371Z,0.64
2023-01-20T21:36:26.344Z,0.68
2023-01-20T21:38:52.894Z,0.67
2023-01-20T21:41:19.414Z,0.70
2023-01-20T21:44:06.669Z,0.67
2023-01-20T21:46:39.520Z,0.63
2023-01-20T21:49:26.218Z,0.65
2023-01-20T21:52:11.554Z,0.65
2023-01-20T21:54:39.838Z,0.66
2023-01-20T21:57:06.474Z,0.66
2023-01-20T21:59:32.928Z,0.67
2023-01-20T22:02:02.142Z,0.66
2023-01-20T22:04:31.806Z,0.63
2023-01-20T22:06:58.293Z,0.65
2023-01-20T22:09:24.754Z,0.66
2023-01-20T22:11:51.130Z,0.64
2023-01-20T22:14:17.729Z,0.67
2023-01-20T22:16:44.288Z,0.67
2023-01-20T22:19:14.089Z,0.68
2023-01-20T22:21:40.965Z,0.63
2023-01-20T22:24:07.957Z,0.65
2023-01-20T22:26:42.545Z,0.65
2023-01-20T22:29:09.568Z,0.66
2023-01-20T22:31:39.458Z,0.68
2023-01-20T22:34:09.996Z,0.66
2023-01-20T22:36:37.842Z,0.67
2023-01-20T22:39:06.522Z,0.63
2023-01-20T22:41:36.210Z,0.65
2023-01-20T22:44:07.466Z,0.64
2023-01-20T22:46:34.131Z,0.65
2023-01-20T22:49:00.538Z,0.65
2023-01-20T22:51:29.425Z,0.66
2023-01-20T22:53:57.911Z,0.66
2023-01-20T22:56:27.454Z,0.66
2023-01-20T22:58:55.674Z,0.65
2023-01-20T23:01:25.378Z,0.63
2023-01-20T23:03:56.508Z,0.63
2023-01-20T23:06:24.338Z,0.62
2023-01-20T23:08:51.030Z,0.64
2023-01-20T23:11:25.284Z,0.62
2023-01-20T23:13:52.162Z,0.63
2023-01-20T23:16:22.281Z,0.64
2023-01-20T23:18:52.655Z,0.61
2023-01-20T23:21:21.781Z,0.61
2023-01-20T23:23:56.623Z,0.62
2023-01-20T23:26:26.123Z,0.60
2023-01-20T23:28:53.621Z,0.64
2023-01-20T23:31:20.688Z,0.58
2023-01-20T23:33:47.246Z,0.63
2023-01-20T23:36:20.409Z,0.63
2023-01-20T23:38:49.715Z,0.63
2023-01-20T23:41:16.967Z,0.64
2023-01-20T23:43:43.389Z,0.60
2023-01-20T23:46:10.600Z,0.63
2023-01-20T23:48:39.905Z,0.61
2023-01-20T23:51:06.823Z,0.64
2023-01-20T23:53:36.624Z,0.63
2023-01-20T23:56:06.457Z,0.65
2023-01-20T23:58:35.390Z,0.63
